Flight Track Log - Related Links

Times and Time Zones

All times are in EDT time to prevent confusion due to time zone crossing. See the N260NC flight status page for this flight to view local times or setup timezone preferences in your user account.

Time Position Orientation Groundspeed Altitude Reporting Facility
EDT Latitude Longitude Course Direction KTS MPH feet Rate Location/Type
Sat 03:25:02 PM 39.5767 -84.2342 182° South 99 114 1,400  Level Indianapolis Center
Sat 03:27:05 PM 39.5228 -84.2367 182° South 101 116 2,800 649 Climbing Indianapolis Center
Sat 03:28:07 PM 39.4944 -84.2358 179° South 101 116 3,400 581 Climbing Indianapolis Center
Sat 03:29:09 PM 39.4636 -84.2331 176° South 105 121 4,000 488 Climbing Indianapolis Center
Sat 03:30:10 PM 39.4369 -84.2503 207° Southwest 116 133 4,400 537 Climbing Indianapolis Center
Sat 03:31:12 PM 39.4358 -84.2917 268° West 115 132 5,100 677 Climbing Indianapolis Center
Sat 03:32:14 PM 39.4364 -84.3411 271° West 116 133 5,800 435 Climbing Indianapolis Center
Sat 03:33:16 PM 39.4322 -84.3850 263° West 120 138 6,000 145 Climbing Indianapolis Center
Sat 03:34:18 PM 39.4278 -84.4361 264° West 137 158 6,100 49 Climbing Indianapolis Center
Sat 03:35:19 PM 39.4233 -84.4889 264° West 145 167 6,100 49 Level Indianapolis Center
Sat 03:36:21 PM 39.4172 -84.5425 262° West 148 170 6,200 242 Climbing Indianapolis Center
Sat 03:37:23 PM 39.4147 -84.5919 266° West 139 160 6,600 387 Climbing Indianapolis Center
Sat 03:38:25 PM 39.4103 -84.6386 263° West 132 152 7,000 387 Climbing Indianapolis Center
Sat 03:39:27 PM 39.4072 -84.6808 265° West 122 140 7,400 439 Climbing Indianapolis Center
Sat 03:40:28 PM 39.4011 -84.7206 259° West 114 131 7,900 293 Climbing Indianapolis Center
Sat 03:41:30 PM 39.3983 -84.7703 266° West 117 135 8,000 97 Climbing Indianapolis Center
Sat 03:42:32 PM 39.3911 -84.8167 259° West 127 146 8,100  Climbing Indianapolis Center
Sat 03:43:34 PM 39.3875 -84.8653 265° West 132 152 8,000 -49 Descending Indianapolis Center
Sat 03:44:35 PM 39.3842 -84.9142 265° West 135 155 8,000  Level Indianapolis Center
Sat 03:45:37 PM 39.3814 -84.9617 266° West 133 153 8,000  Level Indianapolis Center
Sat 03:46:39 PM 39.3756 -85.0106 261° West 137 158 8,000  Level Indianapolis Center
Sat 03:47:40 PM 39.3706 -85.0561 262° West 132 152 8,000  Level Indianapolis Center
Sat 03:48:42 PM 39.3675 -85.1039 265° West 133 153 8,000  Level Indianapolis Center
Sat 03:49:44 PM 39.3628 -85.1594 264° West 130 150 8,000  Level Indianapolis Center
Sat 03:50:46 PM 39.3578 -85.2061 262° West 131 151 8,000  Level Indianapolis Center
Sat 03:51:47 PM 39.3522 -85.2547 262° West 135 155 8,000 49 Level Indianapolis Center
Sat 03:52:49 PM 39.3478 -85.3031 263° West 136 157 8,100  Climbing Indianapolis Center
Sat 03:53:51 PM 39.3428 -85.3497 262° West 132 152 8,000 -48 Descending Indianapolis Center
Sat 03:54:53 PM 39.3397 -85.3983 265° West 136 157 8,000 49 Level Indianapolis Center
Sat 03:55:54 PM 39.3342 -85.4467 262° West 137 158 8,100 49 Climbing Indianapolis Center
Sat 03:56:56 PM 39.3292 -85.4925 262° West 131 151 8,100  Level Indianapolis Center
Sat 03:57:58 PM 39.3236 -85.5472 263° West 128 147 8,100  Level Indianapolis Center
Sat 03:59:00 PM 39.3200 -85.5953 264° West 132 152 8,100  Level Indianapolis Center
Sat 04:00:01 PM 39.3142 -85.6414 261° West 131 151 8,100  Level Indianapolis Center
Sat 04:01:03 PM 39.3097 -85.6897 263° West 135 155 8,100  Level Indianapolis Center
Sat 04:02:05 PM 39.3061 -85.7361 264° West 132 152 8,100  Level Indianapolis Center
Sat 04:03:06 PM 39.3006 -85.7833 261° West 132 152 8,100  Level Indianapolis Center
Sat 04:04:08 PM 39.2958 -85.8306 263° West 133 153 8,100  Level Indianapolis Center
Sat 04:05:10 PM 39.2906 -85.8875 263° West 133 153 8,100  Level Indianapolis Center
Sat 04:06:11 PM 39.2858 -85.9344 263° West 133 153 8,100  Level Indianapolis Center
Sat 04:07:13 PM 39.2806 -85.9808 262° West 132 152 8,100  Level Indianapolis Center
Sat 04:08:14 PM 39.2764 -86.0300 264° West 134 154 8,100  Level Indianapolis Center
Sat 04:09:16 PM 39.2708 -86.0789 262° West 136 157 8,100  Level Indianapolis Center
Sat 04:10:18 PM 39.2661 -86.1269 263° West 136 157 8,100  Level Indianapolis Center
Sat 04:11:19 PM 39.2608 -86.1753 262° West 136 157 8,100  Level Indianapolis Center
Sat 04:12:21 PM 39.2553 -86.2222 261° West 133 153 8,100  Level Indianapolis Center
Sat 04:13:23 PM 39.2494 -86.2806 263° West 136 157 8,100  Level Indianapolis Center
Sat 04:14:24 PM 39.2442 -86.3283 262° West 136 157 8,100  Level Indianapolis Center
Sat 04:15:26 PM 39.2392 -86.3753 262° West 134 154 8,100  Level Indianapolis Center
Sat 04:16:27 PM 39.2342 -86.4211 262° West 131 151 8,100  Level Indianapolis Center
Sat 04:17:29 PM 39.2300 -86.4675 263° West 130 150 8,100  Level Indianapolis Center
Sat 04:18:30 PM 39.2253 -86.5128 262° West 128 147 8,100  Level Indianapolis Center
Sat 04:19:32 PM 39.2194 -86.5578 261° West 127 146 8,100  Level Indianapolis Center
Sat 04:20:33 PM 39.2150 -86.6028 263° West 127 146 8,100  Level Indianapolis Center
Sat 04:21:35 PM 39.2100 -86.6489 262° West 129 148 8,100  Level Indianapolis Center
Sat 04:22:36 PM 39.2047 -86.7028 263° West 128 147 8,100  Level Indianapolis Center
Sat 04:23:38 PM 39.1997 -86.7486 262° West 129 148 8,100  Level Indianapolis Center
Sat 04:24:39 PM 39.1944 -86.7906 261° West 122 140 8,100  Level Indianapolis Center
Sat 04:25:41 PM 39.1894 -86.8350 262° West 123 142 8,100  Level Indianapolis Center
Sat 04:26:43 PM 39.1850 -86.8792 263° West 124 143 8,100  Level Indianapolis Center
Sat 04:27:44 PM 39.1803 -86.9219 262° West 123 142 8,100  Level Indianapolis Center
Sat 04:28:46 PM 39.1750 -86.9661 261° West 123 142 8,100  Level Indianapolis Center
Sat 04:29:47 PM 39.1708 -87.0097 263° West 124 143 8,100  Level Indianapolis Center
Sat 04:30:49 PM 39.1644 -87.0625 261° West 125 144 8,100  Level Indianapolis Center
Sat 04:31:51 PM 39.1592 -87.1058 261° West 123 142 8,100  Level Indianapolis Center
Sat 04:32:52 PM 39.1550 -87.1519 263° West 126 145 8,100  Level Indianapolis Center
Sat 04:33:54 PM 39.1494 -87.1950 261° West 124 143 8,100  Level Indianapolis Center
Sat 04:34:56 PM 39.1456 -87.2400 264° West 125 144 8,100  Level Indianapolis Center
Sat 04:35:57 PM 39.1392 -87.2853 260° West 128 147 8,100  Level Indianapolis Center
Sat 04:36:59 PM 39.1342 -87.3283 261° West 125 144 8,100  Level Indianapolis Center
Sat 04:38:00 PM 39.1283 -87.3825 262° West 126 145 8,100  Level Indianapolis Center
Sat 04:39:02 PM 39.1228 -87.4272 261° West 127 146 8,100  Level Indianapolis Center
Sat 04:40:04 PM 39.1181 -87.4719 262° West 127 146 8,100  Level Indianapolis Center
Sat 04:41:05 PM 39.1117 -87.5231 261° West 131 151 8,100  Level Indianapolis Center
Sat 04:42:07 PM 39.1069 -87.5681 262° West 128 147 8,100  Level Indianapolis Center
Sat 04:43:08 PM 39.1011 -87.6147 261° West 130 150 8,100  Level Indianapolis Center
Sat 04:44:10 PM 39.0953 -87.6628 261° West 134 154 8,100  Level Indianapolis Center
Sat 04:45:12 PM 39.0903 -87.7119 263° West 137 158 8,100  Level Indianapolis Center
Sat 04:46:13 PM 39.0844 -87.7606 261° West 138 159 8,100  Level Indianapolis Center
Sat 04:47:15 PM 39.0786 -87.8097 261° West 138 159 8,100  Level Indianapolis Center
Sat 04:48:16 PM 39.0731 -87.8600 262° West 140 161 8,100  Level Indianapolis Center
Sat 04:49:18 PM 39.0658 -87.9081 259° West 139 160 8,100  Level Indianapolis Center
Sat 04:50:20 PM 39.0600 -87.9683 263° West 140 161 8,100  Level Indianapolis Center
Sat 04:51:21 PM 39.0536 -88.0186 261° West 142 163 8,100  Level Indianapolis Center
Sat 04:52:23 PM 39.0486 -88.0689 263° West 141 162 8,100  Level Indianapolis Center
Sat 04:53:24 PM 39.0414 -88.1194 260° West 143 165 8,100  Level Indianapolis Center
Sat 04:54:26 PM 39.0361 -88.1706 262° West 143 165 8,100  Level Indianapolis Center
Sat 04:55:28 PM 39.0286 -88.2214 259° West 144 166 8,100  Level Indianapolis Center
Sat 04:56:29 PM 39.0225 -88.2728 261° West 145 167 8,100  Level Indianapolis Center
Sat 04:57:31 PM 39.0169 -88.3247 262° West 146 168 8,100  Level Indianapolis Center
Sat 04:58:44 PM 39.0067 -88.3886 258° West 148 170 8,100  Level Kansas City Center
Sat 04:59:45 PM 39.0011 -88.4394 262° West 145 167 8,100  Level Kansas City Center
Sat 05:00:46 PM 38.9953 -88.4894 261° West 142 163 8,100  Level Kansas City Center
Sat 05:01:49 PM 38.9878 -88.5508 261° West 144 166 8,100 -49 Level Kansas City Center
Sat 05:02:49 PM 38.9811 -88.6014 260° West 144 166 8,000 -49 Descending Kansas City Center
Sat 05:03:52 PM 38.9744 -88.6478 260° West 143 165 8,000  Level Kansas City Center
Sat 05:04:53 PM 38.9681 -88.6969 261° West 140 161 8,000  Level Kansas City Center
Sat 05:05:53 PM 38.9631 -88.7475 263° West 143 165 8,000  Level Kansas City Center
Sat 05:06:54 PM 38.9567 -88.7953 260° West 139 160 8,000  Level Kansas City Center
Sat 05:07:57 PM 38.9486 -88.8528 260° West 137 158 8,000  Level Kansas City Center
Sat 05:08:58 PM 38.9425 -88.9033 261° West 141 162 8,000  Level Kansas City Center
Sat 05:09:58 PM 38.9375 -88.9517 262° West 139 160 8,000  Level Kansas City Center
Sat 05:11:02 PM 38.9311 -89.0042 261° West 140 161 8,000  Level Kansas City Center
Sat 05:12:02 PM 38.9244 -89.0528 260° West 139 160 8,000  Level Kansas City Center
Sat 05:13:03 PM 38.9178 -89.1056 261° West 139 160 8,000  Level Kansas City Center
Sat 05:14:04 PM 38.9117 -89.1558 261° West 141 162 8,000  Level Kansas City Center
Sat 05:15:05 PM 38.9047 -89.2042 260° West 139 160 8,000  Level Kansas City Center
Sat 05:16:05 PM 38.8978 -89.2547 260° West 143 165 8,000  Level Kansas City Center
Sat 05:17:09 PM 38.8917 -89.3100 262° West 145 167 8,000  Level Kansas City Center
Sat 05:18:10 PM 38.8842 -89.3606 259° West 144 166 8,000  Level Kansas City Center
Sat 05:19:10 PM 38.8778 -89.4106 261° West 143 165 8,000  Level Kansas City Center
Sat 05:20:11 PM 38.8708 -89.4606 260° West 142 163 8,000  Level Kansas City Center
Sat 05:21:12 PM 38.8636 -89.5147 260° West 143 165 8,000  Level Kansas City Center
Sat 05:22:14 PM 38.8575 -89.5642 261° West 142 163 8,000  Level Kansas City Center
Sat 05:23:14 PM 38.8511 -89.6131 260° West 141 162 8,000  Level Kansas City Center
Sat 05:24:18 PM 38.8172 -89.6489 219° Southwest 153 176 8,000  Level Kansas City Center
Sat 05:25:19 PM 38.7906 -89.6761 219° Southwest 149 171 8,000  Level Kansas City Center
Sat 05:26:20 PM 38.7581 -89.7106 220° Southwest 150 173 8,000  Level Kansas City Center
Sat 05:27:23 PM 38.7194 -89.7531 221° Southwest 152 175 8,000 -195 Level Kansas City Center
Sat 05:28:23 PM 38.6914 -89.7922 227° Southwest 150 173 7,600 -397 Descending Kansas City Center
Sat 05:29:24 PM 38.6711 -89.8383 241° Southwest 149 171 7,200 -443 Descending Kansas City Center
Sat 05:30:25 PM 38.6614 -89.8889 256° West 148 170 6,700 -541 Descending Kansas City Center
Sat 05:31:26 PM 38.6503 -89.9406 255° West 149 171 6,100 -585 Descending Kansas City Center
Sat 05:32:28 PM 38.6553 -89.9936 277° West 152 175 5,500 -537 Descending Kansas City Center
Sat 05:33:29 PM 38.6625 -90.0458 280° West 151 174 5,000 -488 Descending Kansas City Center
Sat 05:34:31 PM 38.6697 -90.0981 280° West 150 173 4,500 -541 Descending Kansas City Center
Sat 05:35:31 PM 38.6772 -90.1533 280° West 153 176 3,900 -585 Descending Kansas City Center
Sat 05:36:34 PM 38.6847 -90.2058 280° West 153 176 3,300 -629 Descending Kansas City Center
Sat 05:37:35 PM 38.6933 -90.2669 280° West 149 171 2,600 -492 Descending Kansas City Center
Sat 05:38:36 PM 38.7028 -90.3164 284° West 145 167 2,300 -198 Descending Kansas City Center
Sat 05:39:36 PM 38.7064 -90.3647 275° West 141 162 2,200 -49 Descending Kansas City Center
Sat 05:40:39 PM 38.7094 -90.4081 275° West 137 158 2,200 -146 Level Kansas City Center
Sat 05:41:39 PM 38.7139 -90.4542 277° West 134 154 1,900 -298 Descending Kansas City Center
Sat 05:42:40 PM 38.7211 -90.5058 280° West 129 148 1,600 -148 Descending Kansas City Center
Sat 05:43:41 PM 38.7217 -90.5472 271° West 127 146 1,600  Level Kansas City Center

Login

Don't have an account? Register now (free) for customized features, flight alerts, and more!